sensor_id;sensor_type;location;lat;lon;timestamp;P1;durP1;ratioP1;P2;durP2;ratioP2
2728;SDS011;1372;47.956;7.830;2022-09-20T00:01:48;1.00;;;0.80;;
2728;SDS011;1372;47.956;7.830;2022-09-20T00:04:19;1.20;;;0.70;;
2728;SDS011;1372;47.956;7.830;2022-09-20T00:07:09;3.60;;;1.07;;
2728;SDS011;1372;47.956;7.830;2022-09-20T00:09:39;0.80;;;0.60;;
2728;SDS011;1372;47.956;7.830;2022-09-20T00:12:08;0.80;;;0.70;;
2728;SDS011;1372;47.956;7.830;2022-09-20T00:14:36;1.10;;;0.93;;
2728;SDS011;1372;47.956;7.830;2022-09-20T00:17:07;3.17;;;1.10;;
2728;SDS011;1372;47.956;7.830;2022-09-20T00:19:55;1.87;;;0.60;;
2728;SDS011;1372;47.956;7.830;2022-09-20T00:22:25;2.83;;;1.20;;
2728;SDS011;1372;47.956;7.830;2022-09-20T00:24:54;3.27;;;0.90;;
2728;SDS011;1372;47.956;7.830;2022-09-20T00:27:24;1.57;;;1.00;;
2728;SDS011;1372;47.956;7.830;2022-09-20T00:29:53;0.87;;;0.80;;
2728;SDS011;1372;47.956;7.830;2022-09-20T00:32:22;2.67;;;1.00;;
2728;SDS011;1372;47.956;7.830;2022-09-20T00:34:50;0.70;;;0.70;;
2728;SDS011;1372;47.956;7.830;2022-09-20T00:37:36;2.87;;;0.80;;
2728;SDS011;1372;47.956;7.830;2022-09-20T00:40:12;1.17;;;0.97;;
2728;SDS011;1372;47.956;7.830;2022-09-20T00:43:02;1.27;;;1.00;;
2728;SDS011;1372;47.956;7.830;2022-09-20T00:45:31;1.70;;;0.90;;
2728;SDS011;1372;47.956;7.830;2022-09-20T00:48:01;1.00;;;0.87;;
2728;SDS011;1372;47.956;7.830;2022-09-20T00:51:00;1.40;;;1.03;;
2728;SDS011;1372;47.956;7.830;2022-09-20T00:53:36;0.80;;;0.77;;
2728;SDS011;1372;47.956;7.830;2022-09-20T00:56:09;2.30;;;1.07;;
2728;SDS011;1372;47.956;7.830;2022-09-20T00:58:43;1.50;;;1.20;;
2728;SDS011;1372;47.956;7.830;2022-09-20T01:01:21;1.90;;;0.83;;
2728;SDS011;1372;47.956;7.830;2022-09-20T01:04:09;1.50;;;0.97;;
2728;SDS011;1372;47.956;7.830;2022-09-20T01:06:40;2.60;;;1.00;;
2728;SDS011;1372;47.956;7.830;2022-09-20T01:09:12;3.93;;;1.03;;
2728;SDS011;1372;47.956;7.830;2022-09-20T01:11:44;0.70;;;0.70;;
2728;SDS011;1372;47.956;7.830;2022-09-20T01:14:16;1.17;;;0.80;;
2728;SDS011;1372;47.956;7.830;2022-09-20T01:16:50;2.63;;;1.10;;
2728;SDS011;1372;47.956;7.830;2022-09-20T01:19:27;3.00;;;1.17;;
2728;SDS011;1372;47.956;7.830;2022-09-20T01:22:09;0.83;;;0.70;;
2728;SDS011;1372;47.956;7.830;2022-09-20T01:25:10;1.10;;;0.90;;
2728;SDS011;1372;47.956;7.830;2022-09-20T01:27:47;1.03;;;0.73;;
2728;SDS011;1372;47.956;7.830;2022-09-20T01:30:18;1.00;;;0.93;;
2728;SDS011;1372;47.956;7.830;2022-09-20T01:32:51;2.43;;;0.80;;
2728;SDS011;1372;47.956;7.830;2022-09-20T01:35:33;5.40;;;1.00;;
2728;SDS011;1372;47.956;7.830;2022-09-20T01:41:00;1.60;;;1.10;;
2728;SDS011;1372;47.956;7.830;2022-09-20T01:43:39;2.50;;;0.93;;
2728;SDS011;1372;47.956;7.830;2022-09-20T01:46:17;4.27;;;1.13;;
2728;SDS011;1372;47.956;7.830;2022-09-20T01:49:00;1.70;;;1.07;;
2728;SDS011;1372;47.956;7.830;2022-09-20T01:51:53;1.93;;;1.30;;
2728;SDS011;1372;47.956;7.830;2022-09-20T01:55:00;1.47;;;0.97;;
2728;SDS011;1372;47.956;7.830;2022-09-20T01:58:12;1.17;;;1.00;;
2728;SDS011;1372;47.956;7.830;2022-09-20T02:04:57;2.53;;;0.90;;
2728;SDS011;1372;47.956;7.830;2022-09-20T02:07:54;1.43;;;1.20;;
2728;SDS011;1372;47.956;7.830;2022-09-20T02:13:42;2.37;;;1.20;;
2728;SDS011;1372;47.956;7.830;2022-09-20T02:16:30;2.33;;;0.80;;
2728;SDS011;1372;47.956;7.830;2022-09-20T02:22:42;2.10;;;0.97;;
2728;SDS011;1372;47.956;7.830;2022-09-20T02:25:23;2.67;;;1.00;;
2728;SDS011;1372;47.956;7.830;2022-09-20T02:28:22;0.90;;;0.90;;
2728;SDS011;1372;47.956;7.830;2022-09-20T02:31:06;2.60;;;1.10;;
2728;SDS011;1372;47.956;7.830;2022-09-20T02:33:56;0.90;;;0.90;;
2728;SDS011;1372;47.956;7.830;2022-09-20T02:37:20;2.00;;;1.20;;
2728;SDS011;1372;47.956;7.830;2022-09-20T02:40:52;1.13;;;1.03;;
2728;SDS011;1372;47.956;7.830;2022-09-20T02:43:39;1.40;;;1.00;;
2728;SDS011;1372;47.956;7.830;2022-09-20T02:46:19;0.97;;;0.83;;
2728;SDS011;1372;47.956;7.830;2022-09-20T02:48:56;1.27;;;0.80;;
2728;SDS011;1372;47.956;7.830;2022-09-20T02:51:35;1.60;;;0.90;;
2728;SDS011;1372;47.956;7.830;2022-09-20T02:54:14;1.60;;;1.00;;
2728;SDS011;1372;47.956;7.830;2022-09-20T02:56:55;1.20;;;1.10;;
2728;SDS011;1372;47.956;7.830;2022-09-20T02:59:30;2.77;;;1.20;;
2728;SDS011;1372;47.956;7.830;2022-09-20T03:02:09;3.70;;;1.23;;
2728;SDS011;1372;47.956;7.830;2022-09-20T03:04:58;1.70;;;0.70;;
2728;SDS011;1372;47.956;7.830;2022-09-20T03:07:43;1.70;;;1.20;;
2728;SDS011;1372;47.956;7.830;2022-09-20T03:10:27;1.10;;;1.00;;
2728;SDS011;1372;47.956;7.830;2022-09-20T03:13:16;1.60;;;0.90;;
2728;SDS011;1372;47.956;7.830;2022-09-20T03:15:56;3.10;;;1.47;;
2728;SDS011;1372;47.956;7.830;2022-09-20T03:18:32;1.60;;;1.00;;
2728;SDS011;1372;47.956;7.830;2022-09-20T03:21:14;1.87;;;1.00;;
2728;SDS011;1372;47.956;7.830;2022-09-20T03:24:02;1.37;;;0.93;;
2728;SDS011;1372;47.956;7.830;2022-09-20T03:26:50;3.27;;;1.20;;
2728;SDS011;1372;47.956;7.830;2022-09-20T03:29:30;0.80;;;0.80;;
2728;SDS011;1372;47.956;7.830;2022-09-20T03:32:17;3.33;;;1.40;;
2728;SDS011;1372;47.956;7.830;2022-09-20T03:35:04;1.40;;;1.30;;
2728;SDS011;1372;47.956;7.830;2022-09-20T03:37:53;1.37;;;1.23;;
2728;SDS011;1372;47.956;7.830;2022-09-20T03:41:02;1.63;;;1.17;;
2728;SDS011;1372;47.956;7.830;2022-09-20T03:44:03;1.60;;;0.97;;
2728;SDS011;1372;47.956;7.830;2022-09-20T03:47:07;1.37;;;0.90;;
2728;SDS011;1372;47.956;7.830;2022-09-20T03:50:11;1.17;;;1.00;;
2728;SDS011;1372;47.956;7.830;2022-09-20T03:53:13;0.77;;;0.77;;
2728;SDS011;1372;47.956;7.830;2022-09-20T03:56:25;1.10;;;1.00;;
2728;SDS011;1372;47.956;7.830;2022-09-20T03:59:36;1.17;;;1.07;;
2728;SDS011;1372;47.956;7.830;2022-09-20T04:02:40;1.23;;;0.80;;
2728;SDS011;1372;47.956;7.830;2022-09-20T04:05:26;1.63;;;1.00;;
2728;SDS011;1372;47.956;7.830;2022-09-20T04:08:08;1.10;;;0.90;;
2728;SDS011;1372;47.956;7.830;2022-09-20T04:10:52;1.73;;;1.10;;
2728;SDS011;1372;47.956;7.830;2022-09-20T04:13:34;3.33;;;1.20;;
2728;SDS011;1372;47.956;7.830;2022-09-20T04:16:12;1.60;;;1.10;;
2728;SDS011;1372;47.956;7.830;2022-09-20T04:18:54;1.10;;;1.00;;
2728;SDS011;1372;47.956;7.830;2022-09-20T04:21:27;2.50;;;1.10;;
2728;SDS011;1372;47.956;7.830;2022-09-20T04:24:03;2.23;;;1.03;;
2728;SDS011;1372;47.956;7.830;2022-09-20T04:26:55;1.13;;;1.03;;
2728;SDS011;1372;47.956;7.830;2022-09-20T04:29:35;2.30;;;1.00;;
2728;SDS011;1372;47.956;7.830;2022-09-20T04:32:14;0.90;;;0.90;;
2728;SDS011;1372;47.956;7.830;2022-09-20T04:34:50;1.93;;;1.00;;
2728;SDS011;1372;47.956;7.830;2022-09-20T04:38:06;1.07;;;1.03;;
2728;SDS011;1372;47.956;7.830;2022-09-20T04:40:46;1.97;;;1.10;;
2728;SDS011;1372;47.956;7.830;2022-09-20T04:43:59;1.60;;;1.50;;
2728;SDS011;1372;47.956;7.830;2022-09-20T04:46:57;2.77;;;2.10;;
2728;SDS011;1372;47.956;7.830;2022-09-20T04:50:11;3.10;;;1.57;;
2728;SDS011;1372;47.956;7.830;2022-09-20T04:56:55;2.10;;;1.33;;
2728;SDS011;1372;47.956;7.830;2022-09-20T04:59:42;2.57;;;1.63;;
2728;SDS011;1372;47.956;7.830;2022-09-20T05:09:13;1.60;;;1.47;;
2728;SDS011;1372;47.956;7.830;2022-09-20T05:12:41;3.00;;;1.10;;
2728;SDS011;1372;47.956;7.830;2022-09-20T05:15:37;1.87;;;1.30;;
2728;SDS011;1372;47.956;7.830;2022-09-20T05:18:23;2.10;;;1.60;;
2728;SDS011;1372;47.956;7.830;2022-09-20T05:24:37;2.07;;;1.60;;
2728;SDS011;1372;47.956;7.830;2022-09-20T05:27:34;1.73;;;1.63;;
2728;SDS011;1372;47.956;7.830;2022-09-20T05:30:12;1.70;;;1.60;;
2728;SDS011;1372;47.956;7.830;2022-09-20T05:32:54;3.03;;;1.23;;
2728;SDS011;1372;47.956;7.830;2022-09-20T05:35:41;1.33;;;1.23;;
2728;SDS011;1372;47.956;7.830;2022-09-20T05:38:21;3.27;;;1.20;;
2728;SDS011;1372;47.956;7.830;2022-09-20T05:41:05;1.23;;;1.13;;
2728;SDS011;1372;47.956;7.830;2022-09-20T05:43:45;4.27;;;2.30;;
2728;SDS011;1372;47.956;7.830;2022-09-20T05:46:31;2.30;;;2.10;;
2728;SDS011;1372;47.956;7.830;2022-09-20T05:49:10;2.50;;;2.30;;
2728;SDS011;1372;47.956;7.830;2022-09-20T05:51:54;3.13;;;2.07;;
2728;SDS011;1372;47.956;7.830;2022-09-20T05:54:46;3.50;;;2.20;;
2728;SDS011;1372;47.956;7.830;2022-09-20T05:58:00;2.93;;;1.80;;
2728;SDS011;1372;47.956;7.830;2022-09-20T06:00:50;1.77;;;1.10;;
2728;SDS011;1372;47.956;7.830;2022-09-20T06:03:45;1.30;;;1.20;;
2728;SDS011;1372;47.956;7.830;2022-09-20T06:06:21;2.80;;;1.57;;
2728;SDS011;1372;47.956;7.830;2022-09-20T06:11:57;1.90;;;1.50;;
2728;SDS011;1372;47.956;7.830;2022-09-20T06:14:44;1.30;;;1.20;;
2728;SDS011;1372;47.956;7.830;2022-09-20T06:17:22;3.87;;;2.27;;
2728;SDS011;1372;47.956;7.830;2022-09-20T06:19:59;1.53;;;1.43;;
2728;SDS011;1372;47.956;7.830;2022-09-20T06:22:42;1.93;;;1.43;;
2728;SDS011;1372;47.956;7.830;2022-09-20T06:25:17;2.23;;;1.50;;
2728;SDS011;1372;47.956;7.830;2022-09-20T06:27:51;1.57;;;1.47;;
2728;SDS011;1372;47.956;7.830;2022-09-20T06:30:27;1.40;;;1.30;;
2728;SDS011;1372;47.956;7.830;2022-09-20T06:33:09;1.97;;;1.83;;
2728;SDS011;1372;47.956;7.830;2022-09-20T06:35:44;1.87;;;1.60;;
2728;SDS011;1372;47.956;7.830;2022-09-20T06:38:29;4.40;;;1.43;;
2728;SDS011;1372;47.956;7.830;2022-09-20T06:41:48;1.53;;;1.27;;
2728;SDS011;1372;47.956;7.830;2022-09-20T06:44:19;3.57;;;2.80;;
2728;SDS011;1372;47.956;7.830;2022-09-20T06:46:47;3.60;;;2.43;;
2728;SDS011;1372;47.956;7.830;2022-09-20T06:49:19;4.10;;;2.70;;
2728;SDS011;1372;47.956;7.830;2022-09-20T06:51:49;6.50;;;3.20;;
2728;SDS011;1372;47.956;7.830;2022-09-20T06:54:19;2.40;;;1.80;;
2728;SDS011;1372;47.956;7.830;2022-09-20T06:56:50;2.67;;;1.63;;
2728;SDS011;1372;47.956;7.830;2022-09-20T06:59:39;4.43;;;2.13;;
2728;SDS011;1372;47.956;7.830;2022-09-20T07:02:07;1.73;;;1.60;;
2728;SDS011;1372;47.956;7.830;2022-09-20T07:04:36;2.90;;;2.07;;
2728;SDS011;1372;47.956;7.830;2022-09-20T07:07:06;2.13;;;1.93;;
2728;SDS011;1372;47.956;7.830;2022-09-20T07:09:36;4.00;;;2.40;;
2728;SDS011;1372;47.956;7.830;2022-09-20T07:12:06;2.67;;;2.47;;
2728;SDS011;1372;47.956;7.830;2022-09-20T07:14:37;2.07;;;1.97;;
2728;SDS011;1372;47.956;7.830;2022-09-20T07:17:07;2.60;;;2.40;;
2728;SDS011;1372;47.956;7.830;2022-09-20T07:19:37;3.67;;;2.00;;
2728;SDS011;1372;47.956;7.830;2022-09-20T07:22:06;5.10;;;2.40;;
2728;SDS011;1372;47.956;7.830;2022-09-20T07:24:35;2.43;;;2.27;;
2728;SDS011;1372;47.956;7.830;2022-09-20T07:27:06;3.17;;;2.90;;
2728;SDS011;1372;47.956;7.830;2022-09-20T07:29:34;2.50;;;2.20;;
2728;SDS011;1372;47.956;7.830;2022-09-20T07:32:23;2.73;;;2.43;;
2728;SDS011;1372;47.956;7.830;2022-09-20T07:34:52;2.30;;;2.10;;
2728;SDS011;1372;47.956;7.830;2022-09-20T07:37:21;4.80;;;2.30;;
2728;SDS011;1372;47.956;7.830;2022-09-20T07:39:52;3.40;;;1.90;;
2728;SDS011;1372;47.956;7.830;2022-09-20T07:42:22;7.33;;;2.43;;
2728;SDS011;1372;47.956;7.830;2022-09-20T07:44:57;2.90;;;1.73;;
2728;SDS011;1372;47.956;7.830;2022-09-20T07:47:28;3.53;;;2.00;;
2728;SDS011;1372;47.956;7.830;2022-09-20T07:50:01;5.10;;;2.17;;
2728;SDS011;1372;47.956;7.830;2022-09-20T07:52:31;4.80;;;1.80;;
2728;SDS011;1372;47.956;7.830;2022-09-20T07:54:59;2.37;;;1.80;;
2728;SDS011;1372;47.956;7.830;2022-09-20T07:57:29;3.40;;;2.10;;
2728;SDS011;1372;47.956;7.830;2022-09-20T08:00:22;3.70;;;1.63;;
2728;SDS011;1372;47.956;7.830;2022-09-20T08:02:57;2.00;;;1.73;;
2728;SDS011;1372;47.956;7.830;2022-09-20T08:05:27;2.13;;;1.53;;
2728;SDS011;1372;47.956;7.830;2022-09-20T08:07:56;2.73;;;1.90;;
2728;SDS011;1372;47.956;7.830;2022-09-20T08:10:26;2.33;;;2.13;;
2728;SDS011;1372;47.956;7.830;2022-09-20T08:12:58;2.50;;;2.00;;
2728;SDS011;1372;47.956;7.830;2022-09-20T08:15:46;3.07;;;2.40;;
2728;SDS011;1372;47.956;7.830;2022-09-20T08:18:35;4.40;;;2.00;;
2728;SDS011;1372;47.956;7.830;2022-09-20T08:21:05;2.33;;;1.73;;
2728;SDS011;1372;47.956;7.830;2022-09-20T08:23:36;3.93;;;2.00;;
2728;SDS011;1372;47.956;7.830;2022-09-20T08:26:26;2.63;;;2.10;;
2728;SDS011;1372;47.956;7.830;2022-09-20T08:28:58;2.97;;;2.10;;
2728;SDS011;1372;47.956;7.830;2022-09-20T08:31:46;4.33;;;2.07;;
2728;SDS011;1372;47.956;7.830;2022-09-20T08:34:15;2.40;;;1.90;;
2728;SDS011;1372;47.956;7.830;2022-09-20T08:37:04;1.70;;;1.60;;
2728;SDS011;1372;47.956;7.830;2022-09-20T08:39:37;2.33;;;1.50;;
2728;SDS011;1372;47.956;7.830;2022-09-20T08:42:25;3.10;;;2.20;;
2728;SDS011;1372;47.956;7.830;2022-09-20T08:45:10;6.00;;;2.70;;
2728;SDS011;1372;47.956;7.830;2022-09-20T08:47:48;4.13;;;2.73;;
2728;SDS011;1372;47.956;7.830;2022-09-20T08:50:25;3.57;;;2.37;;
2728;SDS011;1372;47.956;7.830;2022-09-20T08:53:10;3.47;;;2.20;;
2728;SDS011;1372;47.956;7.830;2022-09-20T08:55:46;1.87;;;1.67;;
2728;SDS011;1372;47.956;7.830;2022-09-20T08:58:19;2.43;;;2.23;;
2728;SDS011;1372;47.956;7.830;2022-09-20T09:00:49;3.90;;;2.33;;
2728;SDS011;1372;47.956;7.830;2022-09-20T09:03:18;4.10;;;2.33;;
2728;SDS011;1372;47.956;7.830;2022-09-20T09:05:47;2.70;;;2.10;;
2728;SDS011;1372;47.956;7.830;2022-09-20T09:08:19;6.50;;;1.97;;
2728;SDS011;1372;47.956;7.830;2022-09-20T09:10:52;3.07;;;2.37;;
2728;SDS011;1372;47.956;7.830;2022-09-20T09:13:25;2.77;;;1.77;;
2728;SDS011;1372;47.956;7.830;2022-09-20T09:16:01;2.50;;;1.53;;
2728;SDS011;1372;47.956;7.830;2022-09-20T09:18:40;4.10;;;2.03;;
2728;SDS011;1372;47.956;7.830;2022-09-20T09:21:16;2.40;;;2.07;;
2728;SDS011;1372;47.956;7.830;2022-09-20T09:23:50;1.90;;;1.73;;
2728;SDS011;1372;47.956;7.830;2022-09-20T09:26:23;2.00;;;1.77;;
2728;SDS011;1372;47.956;7.830;2022-09-20T09:29:08;4.10;;;2.30;;
2728;SDS011;1372;47.956;7.830;2022-09-20T09:32:19;3.27;;;2.20;;
2728;SDS011;1372;47.956;7.830;2022-09-20T09:34:50;4.70;;;2.23;;
2728;SDS011;1372;47.956;7.830;2022-09-20T09:37:38;5.50;;;2.20;;
2728;SDS011;1372;47.956;7.830;2022-09-20T09:40:21;3.43;;;2.10;;
2728;SDS011;1372;47.956;7.830;2022-09-20T09:42:51;5.00;;;2.47;;
2728;SDS011;1372;47.956;7.830;2022-09-20T09:45:26;4.70;;;2.00;;
2728;SDS011;1372;47.956;7.830;2022-09-20T09:48:00;2.80;;;2.20;;
2728;SDS011;1372;47.956;7.830;2022-09-20T09:50:32;3.57;;;2.97;;
2728;SDS011;1372;47.956;7.830;2022-09-20T09:53:04;3.87;;;1.70;;
2728;SDS011;1372;47.956;7.830;2022-09-20T09:55:46;5.23;;;2.10;;
2728;SDS011;1372;47.956;7.830;2022-09-20T09:58:44;2.23;;;2.03;;
2728;SDS011;1372;47.956;7.830;2022-09-20T10:01:32;2.40;;;1.73;;
2728;SDS011;1372;47.956;7.830;2022-09-20T10:04:09;4.50;;;1.97;;
2728;SDS011;1372;47.956;7.830;2022-09-20T10:06:47;3.67;;;1.73;;
2728;SDS011;1372;47.956;7.830;2022-09-20T10:09:29;3.90;;;1.77;;
2728;SDS011;1372;47.956;7.830;2022-09-20T10:12:21;6.00;;;2.37;;
2728;SDS011;1372;47.956;7.830;2022-09-20T10:15:16;3.47;;;2.03;;
2728;SDS011;1372;47.956;7.830;2022-09-20T10:17:59;5.30;;;2.20;;
2728;SDS011;1372;47.956;7.830;2022-09-20T10:20:57;2.17;;;2.07;;
2728;SDS011;1372;47.956;7.830;2022-09-20T10:29:47;2.80;;;1.60;;
2728;SDS011;1372;47.956;7.830;2022-09-20T10:32:34;1.87;;;1.77;;
2728;SDS011;1372;47.956;7.830;2022-09-20T10:35:22;4.00;;;1.57;;
2728;SDS011;1372;47.956;7.830;2022-09-20T10:38:04;3.70;;;1.80;;
2728;SDS011;1372;47.956;7.830;2022-09-20T10:41:20;1.53;;;1.43;;
2728;SDS011;1372;47.956;7.830;2022-09-20T10:44:28;1.83;;;1.30;;
2728;SDS011;1372;47.956;7.830;2022-09-20T10:47:13;5.50;;;1.67;;
2728;SDS011;1372;47.956;7.830;2022-09-20T10:49:46;1.60;;;1.20;;
2728;SDS011;1372;47.956;7.830;2022-09-20T10:52:29;1.00;;;1.00;;
2728;SDS011;1372;47.956;7.830;2022-09-20T10:55:26;2.50;;;1.20;;
2728;SDS011;1372;47.956;7.830;2022-09-20T11:01:19;1.23;;;1.00;;
2728;SDS011;1372;47.956;7.830;2022-09-20T11:04:10;2.70;;;1.37;;
2728;SDS011;1372;47.956;7.830;2022-09-20T11:07:06;1.87;;;1.40;;
2728;SDS011;1372;47.956;7.830;2022-09-20T11:09:46;1.93;;;1.30;;
2728;SDS011;1372;47.956;7.830;2022-09-20T11:12:22;2.90;;;1.30;;
2728;SDS011;1372;47.956;7.830;2022-09-20T11:15:16;1.10;;;1.00;;
2728;SDS011;1372;47.956;7.830;2022-09-20T11:17:53;1.77;;;1.40;;
2728;SDS011;1372;47.956;7.830;2022-09-20T11:20:31;4.20;;;1.47;;
2728;SDS011;1372;47.956;7.830;2022-09-20T11:23:10;1.17;;;1.00;;
2728;SDS011;1372;47.956;7.830;2022-09-20T11:25:47;3.80;;;1.40;;
2728;SDS011;1372;47.956;7.830;2022-09-20T11:28:21;2.33;;;1.23;;
2728;SDS011;1372;47.956;7.830;2022-09-20T11:30:57;1.77;;;1.10;;
2728;SDS011;1372;47.956;7.830;2022-09-20T11:33:34;2.50;;;0.97;;
2728;SDS011;1372;47.956;7.830;2022-09-20T11:36:12;1.40;;;1.30;;
2728;SDS011;1372;47.956;7.830;2022-09-20T11:38:46;1.40;;;1.30;;
2728;SDS011;1372;47.956;7.830;2022-09-20T11:41:24;1.60;;;1.20;;
2728;SDS011;1372;47.956;7.830;2022-09-20T11:43:58;4.70;;;1.13;;
2728;SDS011;1372;47.956;7.830;2022-09-20T11:46:54;1.30;;;1.17;;
2728;SDS011;1372;47.956;7.830;2022-09-20T11:49:41;1.37;;;0.80;;
2728;SDS011;1372;47.956;7.830;2022-09-20T11:52:24;1.50;;;0.90;;
2728;SDS011;1372;47.956;7.830;2022-09-20T11:55:16;1.17;;;0.80;;
2728;SDS011;1372;47.956;7.830;2022-09-20T11:58:01;0.97;;;0.83;;
2728;SDS011;1372;47.956;7.830;2022-09-20T12:00:35;1.60;;;1.00;;
2728;SDS011;1372;47.956;7.830;2022-09-20T12:03:29;1.67;;;1.30;;
2728;SDS011;1372;47.956;7.830;2022-09-20T12:06:03;1.60;;;0.97;;
2728;SDS011;1372;47.956;7.830;2022-09-20T12:08:36;1.50;;;0.90;;
2728;SDS011;1372;47.956;7.830;2022-09-20T12:11:09;3.47;;;1.20;;
2728;SDS011;1372;47.956;7.830;2022-09-20T12:13:41;4.70;;;1.50;;
2728;SDS011;1372;47.956;7.830;2022-09-20T12:16:35;1.50;;;1.03;;
2728;SDS011;1372;47.956;7.830;2022-09-20T12:19:09;2.23;;;0.90;;
2728;SDS011;1372;47.956;7.830;2022-09-20T12:24:44;1.03;;;0.90;;
2728;SDS011;1372;47.956;7.830;2022-09-20T12:28:01;0.97;;;0.80;;
2728;SDS011;1372;47.956;7.830;2022-09-20T12:30:31;3.20;;;0.93;;
2728;SDS011;1372;47.956;7.830;2022-09-20T12:33:18;1.10;;;1.00;;
2728;SDS011;1372;47.956;7.830;2022-09-20T12:35:51;1.30;;;1.10;;
2728;SDS011;1372;47.956;7.830;2022-09-20T12:41:43;0.90;;;0.60;;
2728;SDS011;1372;47.956;7.830;2022-09-20T12:47:04;0.80;;;0.73;;
2728;SDS011;1372;47.956;7.830;2022-09-20T12:49:49;1.00;;;0.60;;
2728;SDS011;1372;47.956;7.830;2022-09-20T12:52:47;0.73;;;0.57;;
2728;SDS011;1372;47.956;7.830;2022-09-20T12:55:40;1.07;;;0.70;;
2728;SDS011;1372;47.956;7.830;2022-09-20T12:58:17;2.10;;;1.00;;
2728;SDS011;1372;47.956;7.830;2022-09-20T13:01:24;0.93;;;0.80;;
2728;SDS011;1372;47.956;7.830;2022-09-20T13:10:16;2.33;;;0.93;;
2728;SDS011;1372;47.956;7.830;2022-09-20T13:13:03;0.70;;;0.60;;
2728;SDS011;1372;47.956;7.830;2022-09-20T13:15:49;0.90;;;0.90;;
2728;SDS011;1372;47.956;7.830;2022-09-20T13:18:24;1.23;;;0.80;;
2728;SDS011;1372;47.956;7.830;2022-09-20T13:20:55;0.80;;;0.73;;
2728;SDS011;1372;47.956;7.830;2022-09-20T13:23:40;1.53;;;0.80;;
2728;SDS011;1372;47.956;7.830;2022-09-20T13:26:15;0.80;;;0.80;;
2728;SDS011;1372;47.956;7.830;2022-09-20T13:28:54;2.10;;;0.93;;
2728;SDS011;1372;47.956;7.830;2022-09-20T13:31:32;0.87;;;0.73;;
2728;SDS011;1372;47.956;7.830;2022-09-20T13:34:22;1.70;;;0.83;;
2728;SDS011;1372;47.956;7.830;2022-09-20T13:36:55;0.70;;;0.60;;
2728;SDS011;1372;47.956;7.830;2022-09-20T13:39:27;1.43;;;1.23;;
2728;SDS011;1372;47.956;7.830;2022-09-20T13:42:05;0.80;;;0.80;;
2728;SDS011;1372;47.956;7.830;2022-09-20T13:45:00;1.73;;;0.90;;
2728;SDS011;1372;47.956;7.830;2022-09-20T13:47:40;1.13;;;1.03;;
2728;SDS011;1372;47.956;7.830;2022-09-20T13:50:29;2.13;;;0.97;;
2728;SDS011;1372;47.956;7.830;2022-09-20T13:53:12;1.20;;;0.80;;
2728;SDS011;1372;47.956;7.830;2022-09-20T13:56:04;1.70;;;1.00;;
2728;SDS011;1372;47.956;7.830;2022-09-20T13:58:38;1.10;;;0.80;;
2728;SDS011;1372;47.956;7.830;2022-09-20T14:01:27;0.90;;;0.70;;
2728;SDS011;1372;47.956;7.830;2022-09-20T14:03:59;1.63;;;1.10;;
2728;SDS011;1372;47.956;7.830;2022-09-20T14:06:36;1.80;;;0.93;;
2728;SDS011;1372;47.956;7.830;2022-09-20T14:09:15;0.80;;;0.80;;
2728;SDS011;1372;47.956;7.830;2022-09-20T14:12:02;0.90;;;0.80;;
2728;SDS011;1372;47.956;7.830;2022-09-20T14:14:38;0.50;;;0.50;;
2728;SDS011;1372;47.956;7.830;2022-09-20T14:17:10;0.80;;;0.70;;
2728;SDS011;1372;47.956;7.830;2022-09-20T14:19:45;0.70;;;0.70;;
2728;SDS011;1372;47.956;7.830;2022-09-20T14:22:21;0.70;;;0.70;;
2728;SDS011;1372;47.956;7.830;2022-09-20T14:24:59;0.93;;;0.83;;
2728;SDS011;1372;47.956;7.830;2022-09-20T14:28:15;0.53;;;0.53;;
2728;SDS011;1372;47.956;7.830;2022-09-20T14:30:45;1.37;;;0.60;;
2728;SDS011;1372;47.956;7.830;2022-09-20T14:33:16;2.37;;;0.70;;
2728;SDS011;1372;47.956;7.830;2022-09-20T14:35:47;2.30;;;0.83;;
2728;SDS011;1372;47.956;7.830;2022-09-20T14:38:21;1.97;;;0.70;;
2728;SDS011;1372;47.956;7.830;2022-09-20T14:40:52;0.83;;;0.67;;
2728;SDS011;1372;47.956;7.830;2022-09-20T14:43:23;0.80;;;0.67;;
2728;SDS011;1372;47.956;7.830;2022-09-20T14:45:59;1.27;;;0.60;;
2728;SDS011;1372;47.956;7.830;2022-09-20T14:48:34;1.17;;;0.77;;
2728;SDS011;1372;47.956;7.830;2022-09-20T14:51:08;1.17;;;0.83;;
2728;SDS011;1372;47.956;7.830;2022-09-20T14:53:52;0.60;;;0.60;;
2728;SDS011;1372;47.956;7.830;2022-09-20T14:56:59;0.90;;;0.90;;
2728;SDS011;1372;47.956;7.830;2022-09-20T14:59:34;0.90;;;0.70;;
2728;SDS011;1372;47.956;7.830;2022-09-20T15:02:25;1.90;;;0.70;;
2728;SDS011;1372;47.956;7.830;2022-09-20T15:04:56;1.27;;;0.70;;
2728;SDS011;1372;47.956;7.830;2022-09-20T15:07:26;3.50;;;1.27;;
2728;SDS011;1372;47.956;7.830;2022-09-20T15:10:17;0.80;;;0.80;;
2728;SDS011;1372;47.956;7.830;2022-09-20T15:12:46;3.30;;;0.70;;
2728;SDS011;1372;47.956;7.830;2022-09-20T15:15:16;1.20;;;0.90;;
2728;SDS011;1372;47.956;7.830;2022-09-20T15:17:47;1.00;;;0.87;;
2728;SDS011;1372;47.956;7.830;2022-09-20T15:20:17;1.87;;;0.87;;
2728;SDS011;1372;47.956;7.830;2022-09-20T15:23:09;1.03;;;0.70;;
2728;SDS011;1372;47.956;7.830;2022-09-20T15:25:40;1.67;;;0.67;;
2728;SDS011;1372;47.956;7.830;2022-09-20T15:28:28;1.20;;;0.97;;
2728;SDS011;1372;47.956;7.830;2022-09-20T15:31:00;1.03;;;0.80;;
2728;SDS011;1372;47.956;7.830;2022-09-20T15:33:30;3.97;;;0.80;;
2728;SDS011;1372;47.956;7.830;2022-09-20T15:36:00;2.20;;;1.20;;
2728;SDS011;1372;47.956;7.830;2022-09-20T15:38:32;2.00;;;1.30;;
2728;SDS011;1372;47.956;7.830;2022-09-20T15:41:02;1.70;;;1.07;;
2728;SDS011;1372;47.956;7.830;2022-09-20T15:43:31;1.83;;;1.17;;
2728;SDS011;1372;47.956;7.830;2022-09-20T15:46:03;1.40;;;0.90;;
2728;SDS011;1372;47.956;7.830;2022-09-20T15:48:45;2.50;;;1.70;;
2728;SDS011;1372;47.956;7.830;2022-09-20T15:51:17;2.30;;;1.13;;
2728;SDS011;1372;47.956;7.830;2022-09-20T15:53:47;1.43;;;0.90;;
2728;SDS011;1372;47.956;7.830;2022-09-20T15:56:25;4.13;;;1.33;;
2728;SDS011;1372;47.956;7.830;2022-09-20T15:58:55;1.20;;;0.83;;
2728;SDS011;1372;47.956;7.830;2022-09-20T16:01:27;1.10;;;0.90;;
2728;SDS011;1372;47.956;7.830;2022-09-20T16:03:58;1.73;;;1.63;;
2728;SDS011;1372;47.956;7.830;2022-09-20T16:06:33;1.17;;;0.80;;
2728;SDS011;1372;47.956;7.830;2022-09-20T16:09:02;1.63;;;1.07;;
2728;SDS011;1372;47.956;7.830;2022-09-20T16:11:35;1.03;;;0.83;;
2728;SDS011;1372;47.956;7.830;2022-09-20T16:14:04;1.10;;;0.93;;
2728;SDS011;1372;47.956;7.830;2022-09-20T16:16:35;0.83;;;0.80;;
2728;SDS011;1372;47.956;7.830;2022-09-20T16:19:06;0.80;;;0.57;;
2728;SDS011;1372;47.956;7.830;2022-09-20T16:21:46;1.53;;;1.43;;
2728;SDS011;1372;47.956;7.830;2022-09-20T16:24:24;1.20;;;0.73;;
2728;SDS011;1372;47.956;7.830;2022-09-20T16:26:55;1.00;;;0.90;;
2728;SDS011;1372;47.956;7.830;2022-09-20T16:29:27;1.90;;;0.70;;
2728;SDS011;1372;47.956;7.830;2022-09-20T16:31:57;0.93;;;0.70;;
2728;SDS011;1372;47.956;7.830;2022-09-20T16:34:29;0.77;;;0.70;;
2728;SDS011;1372;47.956;7.830;2022-09-20T16:37:00;1.53;;;0.73;;
2728;SDS011;1372;47.956;7.830;2022-09-20T16:39:35;2.03;;;0.90;;
2728;SDS011;1372;47.956;7.830;2022-09-20T16:42:06;0.83;;;0.60;;
2728;SDS011;1372;47.956;7.830;2022-09-20T16:44:38;1.73;;;0.90;;
2728;SDS011;1372;47.956;7.830;2022-09-20T16:47:09;1.67;;;0.90;;
2728;SDS011;1372;47.956;7.830;2022-09-20T16:49:44;1.23;;;0.80;;
2728;SDS011;1372;47.956;7.830;2022-09-20T16:52:13;1.10;;;1.00;;
2728;SDS011;1372;47.956;7.830;2022-09-20T16:54:42;2.37;;;0.90;;
2728;SDS011;1372;47.956;7.830;2022-09-20T16:57:14;0.80;;;0.80;;
2728;SDS011;1372;47.956;7.830;2022-09-20T16:59:46;1.33;;;0.67;;
2728;SDS011;1372;47.956;7.830;2022-09-20T17:02:17;1.00;;;1.00;;
2728;SDS011;1372;47.956;7.830;2022-09-20T17:04:49;0.77;;;0.70;;
2728;SDS011;1372;47.956;7.830;2022-09-20T17:07:37;1.10;;;1.00;;
2728;SDS011;1372;47.956;7.830;2022-09-20T17:10:09;1.50;;;0.97;;
2728;SDS011;1372;47.956;7.830;2022-09-20T17:12:40;2.40;;;1.30;;
2728;SDS011;1372;47.956;7.830;2022-09-20T17:15:12;1.30;;;0.70;;
2728;SDS011;1372;47.956;7.830;2022-09-20T17:17:42;1.07;;;0.77;;
2728;SDS011;1372;47.956;7.830;2022-09-20T17:20:11;0.70;;;0.70;;
2728;SDS011;1372;47.956;7.830;2022-09-20T17:22:40;1.03;;;0.80;;
2728;SDS011;1372;47.956;7.830;2022-09-20T17:25:09;0.60;;;0.60;;
2728;SDS011;1372;47.956;7.830;2022-09-20T17:27:37;0.90;;;0.83;;
2728;SDS011;1372;47.956;7.830;2022-09-20T17:30:27;0.80;;;0.80;;
2728;SDS011;1372;47.956;7.830;2022-09-20T17:32:56;0.60;;;0.60;;